KOXC/OXC METAR and TAF weather

Enter ICAO airport designator
Station Type Date Time Source
KOXC METAR 2022/12/08 11:51 UTC NOAA

KOXC 081151Z 34016G20KT 10SM FEW022 07/03 A3018 RMK AO2 SLP234 T00670033 10111 20067 53014


Station Type Date Time Source
KOXC Decoded METAR 2022/12/08 11:51 UTC NOAA

Oxford, Waterbury-Oxford Airport, CT, United States (KOXC) 41-29N 073-08W
Dec 08, 2022 - 06:51 AM EST / 2022.12.08 1151 UTC
Wind: from the NNW (340 degrees) at 18 MPH (16 KT) gusting to 23 MPH (20 KT):0
Visibility: 10 mile(s):0
Sky conditions: mostly clear
Temperature: 44.1 F (6.7 C)
Dew Point: 37.9 F (3.3 C)
Relative Humidity: 78%
Pressure (altimeter): 30.18 in. Hg (1022 hPa)
Pressure tendency: 0.04 inches (1.4 hPa) higher than three hours ago
ob: KOXC 081151Z 34016G20KT 10SM FEW022 07/03 A3018 RMK AO2 SLP234 T00670033 10111 20067 53014
cycle: 12

Station Type Date Time Source
KOXC TAF UTC NOAA

Error!

Example: see airport list